Welcome to our new website - Welkom op onze vernieuwde website - Bienvenue sur notre nouveau site web - Willkommen auf unserer neuen Website
Check our progress frequently. Prüfen Sie unsere Fortschritte regelmäßig. Consultez notre progression fréquemment. Komt u straks nog eens

KNMI Weersverwachting is alleen beschikbaar in de Nederlandse Taal, Ongeacht welke taal u kiest.
KNMI weather forecast is only available in the Dutch language, No matter what language you choose.







Meteo Oudkarspel - De weer weet site voor Langedijk

Blijf op de hoogte van het actuele weer, Keep up to date with the current weather.



Lokaal brandgevaar
CBI


Regionaal natuur brand risico: Meer informatie


Mijn Webcam 1 Meer informatie My webcam


Mijn Webcam 2 Meer informatie My webcam 2


Onweer radar Meer informatie blitzortung!


Regen radar Meer informatie rain snow radar


Bezoek onze andere website:

Template - Davis WeatherLink Version
Vantage Veu

Template - Meteotemplate

Template - HomeWeatherStation

PDøROK Multimedia

Meteo Broek Op Langedijk

Visual FM - Serious Internet RadioVisual FM - Serious Internet Radio

Lief LangedijkLief Langedijk

Dé fietsenmaker van Langedijk en omstrekenAxel Noort dé fietsenmaker

Ijsvereniging Volharding

Meteo Tuitjenhorn

Meteo Delfzijl

Weerstation Noordbergum

Weerstation ParkstadWeerstation Parkstad



Het weer levert geen direct gevaar op.    Er zijn geen waarschuwingen afgegeven.

METAR rapporten vliegvelden

   
EHKD - De Kooy (navy), Netherlands
Afstand tot: N 23 km
Gewijzigd: 01-Apr-2020 15:55
Bewolking  
Bewolking  
   Wind: Westen 22.2 km/h
Wind: Westen 22.2 km/h
Temperatuur: 8°C
Voelt als: 4°C
Dauwpunt: 3°C
Vochtigheid: 71%
Barometer: 1020 hPa
Bewolking: Bewolking
Zicht: meer dan 10 km
Bewolking: Gedeeltelijk bewolkt 2200 ft,
Bewolking 5700 ft
EHKD 011355Z AUTO 27012KT 240V300 9999 SCT022 OVC057 08/03 Q1020 WHT 26012KT 9999 FEW018 BKN045 TEMPO SCT018 BKN040
EHAM - Amsterdam/Schiph, Netherlands
Afstand tot: Z 44 km
Gewijzigd: 01-Apr-2020 15:55
Grotendeels bewolkt  
Grotendeels bewolkt  
   Wind: Westen 13 km/h
Wind: Westen 13 km/h
Temperatuur: 7°C
Voelt als: 4°C
Dauwpunt: 1°C
Vochtigheid: 66%
Barometer: 1021 hPa
Bewolking: Grotendeels bewolkt
Zicht: meer dan 10 km
Bewolking: Licht bewolkt 2800 ft,
Grotendeels bewolkt 4000 ft
EHAM 011355Z 28007KT 250V310 9999 FEW028 BKN040 07/01 Q1021 NOSIG
EHQE - Hoorn-A Sea, Netherlands
Afstand tot: WNW 50 km
Gewijzigd: 01-Apr-2020 15:55
Licht bewolkt  
Licht bewolkt  
   Wind: Westen 20.4 km/h
Wind: Westen 20.4 km/h
Temperatuur: 7°C
Voelt als: 3°C
Dauwpunt: 2°C
Vochtigheid: 71%
Barometer: 1020 hPa
Bewolking: Licht bewolkt
Zicht: meer dan 10 km
Bewolking: Licht bewolkt 1800 ft
EHQE 011355Z AUTO 26011KT 9999 FEW018 07/02 Q1020
EHVL - Vlieland Island, Netherlands
Afstand tot: N 58 km
Gewijzigd: 01-Apr-2020 15:55
Bewolking  
Bewolking  
   Wind: Westen 24.1 km/h
Wind: Westen 24.1 km/h
Temperatuur: 8°C
Voelt als: 4°C
Dauwpunt: 3°C
Vochtigheid: 71%
Barometer: 1020 hPa
Bewolking: Bewolking
Zicht: meer dan 10 km
Bewolking: Licht bewolkt 1800 ft,
Bewolking 6000 ft
EHVL 011355Z AUTO 28013KT 9999 FEW018 OVC060 08/03 Q1020 BLU
EHLW - Leeuwarden Rnlaf, Netherlands
Afstand tot: NO 85 km
Gewijzigd: 01-Apr-2020 15:55
Bewolking  
Bewolking  
   Wind: Westen 20.4 km/h
Wind: Westen 20.4 km/h
Temperatuur: 8°C
Voelt als: 5°C
Dauwpunt: 3°C
Vochtigheid: 71%
Barometer: 1020 hPa
Bewolking: Bewolking
Zicht: meer dan 10 km
Bewolking: Licht bewolkt 2600 ft,
Gedeeltelijk bewolkt 5200 ft,
Bewolking 5900 ft
EHLW 011355Z AUTO 28011KT 240V310 9999 FEW026 SCT052 OVC059 08/03 Q1020 BLU 27012KT 9999 SCT020 BKN048
EHRD - Rotterdam Airpor, Netherlands
Afstand tot: ZZW 88 km
Gewijzigd: 01-Apr-2020 15:55
Bewolking  
Bewolking  
   Wind: Noorden 9.3 km/h
Wind: Noorden 9.3 km/h
Temperatuur: 8°C
Voelt als: 7°C
Dauwpunt: 0°C
Vochtigheid: 57%
Barometer: 1021 hPa
Bewolking: Bewolking
Zicht: meer dan 10 km
Bewolking: Bewolking 3200 ft
EHRD 011355Z AUTO 01005KT 300V040 9999 OVC032 08/00 Q1021 NOSIG
EHKV - K14-Fa-1c Sea, Netherlands
Afstand tot: NW 100 km
Gewijzigd: 01-Apr-2020 15:55
Gedeeltelijk bewolkt  
Gedeeltelijk bewolkt  
   Wind: Westen 25.9 km/h
Wind: Westen 25.9 km/h
Temperatuur: 7°C
Voelt als: 3°C
Dauwpunt: 2°C
Vochtigheid: 71%
Barometer: 1021 hPa
Bewolking: Gedeeltelijk bewolkt
Zicht: meer dan 10 km
Bewolking: Gedeeltelijk bewolkt
EHKV 011355Z AUTO 26014KT 9999 NSC 07/02 Q1021
EHMG - L9-Ff-1 Sea, Netherlands
Afstand tot: N 101 km
Gewijzigd: 01-Apr-2020 15:55
Gedeeltelijk bewolkt  
Gedeeltelijk bewolkt  
   Wind: Westen 29.6 km/h
Wind: Westen 29.6 km/h
Temperatuur: 7°C
Voelt als: 3°C
Dauwpunt: 2°C
Vochtigheid: 71%
Barometer: 1020 hPa
Bewolking: Gedeeltelijk bewolkt
Zicht: meer dan 10 km
Bewolking: Gedeeltelijk bewolkt
EHMG 011355Z AUTO 26016KT 9999 NSC 07/02 Q1020
EHDL - Deelen Rnlafb, Netherlands
Afstand tot: ZO 102 km
Gewijzigd: 01-Apr-2020 15:55
Bewolking  
Bewolking  
   Wind: Noorden 9.3 km/h
Wind: Noorden 9.3 km/h
Temperatuur: 8°C
Voelt als: 7°C
Dauwpunt: -1°C
Vochtigheid: 53%
Barometer: 1020 hPa
Bewolking: Bewolking
Zicht: meer dan 10 km
Bewolking: Grotendeels bewolkt 4000 ft,
Bewolking 4400 ft
EHDL 011355Z AUTO 35005KT 260V060 9999 BKN040 OVC044 08/M01 Q1020 BLU
EHPG - P11-B Sea, Netherlands
Afstand tot: WZW 106 km
Gewijzigd: 01-Apr-2020 15:55
Grotendeels bewolkt  
Grotendeels bewolkt  
   Wind: Westen 18.5 km/h
Wind: Westen 18.5 km/h
Temperatuur: 6°C
Voelt als: 3°C
Dauwpunt: 1°C
Vochtigheid: 71%
Barometer: 1021 hPa
Bewolking: Grotendeels bewolkt
Zicht: meer dan 10 km
Bewolking: Grotendeels bewolkt 4600 ft
EHPG 011355Z AUTO 28010KT 190V350 9999 BKN046 06/01 Q1021
EHMA - Awg-1 Sea, Netherlands
Afstand tot: NO 116 km
Gewijzigd: 01-Apr-2020 15:55
Gedeeltelijk bewolkt  
Gedeeltelijk bewolkt  
   Wind: Westen 29.6 km/h
Wind: Westen 29.6 km/h
Temperatuur: 7°C
Voelt als: 3°C
Dauwpunt: 3°C
Vochtigheid: 76%
Barometer: 1019 hPa
Bewolking: Gedeeltelijk bewolkt
Zicht: meer dan 10 km
Bewolking: Gedeeltelijk bewolkt 4700 ft
EHMA 011355Z AUTO 28016KT 9999 SCT047 07/03 Q1019
EHSC - Goeree Le Sea, Netherlands
Afstand tot: ZW 116 km
Gewijzigd: 01-Apr-2020 15:55
  
  
   Wind: NW 14.8 km/h
Wind: NW 14.8 km/h
Temperatuur: 6°C
Voelt als: 3°C
Dauwpunt: 0°C
Vochtigheid: 66%
Barometer: 1021 hPa
Zicht: meer dan 10 km
EHSC 011355Z AUTO 31008KT 9999 ///////// 06/00 Q1021 W08/H5
EHJR - K13-A Sea, Netherlands
Afstand tot: WNW 120 km
Gewijzigd: 01-Apr-2020 15:55
  
  
   Wind: Westen 24.1 km/h
Wind: Westen 24.1 km/h
Temperatuur: 7°C
Voelt als: 3°C
Dauwpunt: 3°C
Vochtigheid: 76%
Barometer: 1020 hPa
EHJR 011355Z AUTO 27013KT //// // ///////// 07/03 Q1020 RE// W08/H11
EHGG - Groningen/Eelde, Netherlands
Afstand tot: ONO 126 km
Gewijzigd: 01-Apr-2020 15:55
Grotendeels bewolkt  
Grotendeels bewolkt  
   Wind: WZW 14.8 km/h
Wind: WZW 14.8 km/h
Temperatuur: 7°C
Voelt als: 4°C
Dauwpunt: 4°C
Vochtigheid: 81%
Barometer: 1019 hPa
Bewolking: Grotendeels bewolkt
Zicht: meer dan 10 km
Bewolking: Licht bewolkt 1700 ft,
Gedeeltelijk bewolkt 2300 ft,
Grotendeels bewolkt 3800 ft
EHGG 011355Z AUTO 24008KT 210V270 9999 FEW017 SCT023 BKN038 07/04 Q1019 NOSIG
EHGR - Gilze-Rijen Rnla, Netherlands
Afstand tot: Z 128 km
Gewijzigd: 01-Apr-2020 15:55
Licht bewolkt  
Licht bewolkt  
   Wind: Noorden 11.1 km/h
Wind: Noorden 11.1 km/h
Temperatuur: 9°C
Voelt als: 7°C
Dauwpunt: -2°C
Vochtigheid: 46%
Barometer: 1020 hPa
Bewolking: Licht bewolkt
Zicht: meer dan 10 km
Bewolking: Licht bewolkt 4500 ft
EHGR 011355Z AUTO 35006KT 230V020 9999 FEW045 09/M02 Q1020 BLU 34005KT 9999 FEW045
EHSA - Euro Platform, Netherlands
Afstand tot: ZW 130 km
Gewijzigd: 01-Apr-2020 15:55
  
  
   Wind: Westen 14.8 km/h
Wind: Westen 14.8 km/h
Temperatuur: 7°C
Voelt als: 4°C
Dauwpunt: 2°C
Vochtigheid: 71%
Barometer: 1021 hPa
Zicht: meer dan 10 km
EHSA 011355Z AUTO 28008KT 9999 ///////// 07/02 Q1021 W06/H6
EHVK - Volkel Rnlafb, Netherlands
Afstand tot: ZZO 135 km
Gewijzigd: 01-Apr-2020 15:55
Gedeeltelijk bewolkt  
Gedeeltelijk bewolkt  
   Wind: varieert 9.3 km/h
Wind: varieert 9.3 km/h
Temperatuur: 10°C
Voelt als: 9°C
Dauwpunt: -1°C
Vochtigheid: 47%
Barometer: 1020 hPa
Bewolking: Gedeeltelijk bewolkt
Zicht: meer dan 10 km
Bewolking: Gedeeltelijk bewolkt 4600 ft
EHVK 011355Z AUTO VRB05KT 9999 SCT046 10/M01 Q1020 BLU
EHWO - Woensdrecht Rnla, Netherlands
Afstand tot: ZZW 144 km
Gewijzigd: 01-Apr-2020 15:55
Helder  
Helder  
   Wind: varieert 16.7 km/h
Wind: varieert 16.7 km/h
Temperatuur: 10°C
Voelt als: 8°C
Dauwpunt: -2°C
Vochtigheid: 43%
Barometer: 1020 hPa
Bewolking: Helder
Zicht: meer dan 10 km
Bewolking: Helder
EHWO 011355Z AUTO VRB09KT 9999 NCD 10/M02 Q1020 BLU
EHEH - Eindhoven Rnlafb, Netherlands
Afstand tot: ZZO 146 km
Gewijzigd: 01-Apr-2020 15:55
Helder  
Helder  
   Wind: varieert 7.4 km/h
Wind: varieert 7.4 km/h
Temperatuur: 10°C
Voelt als: 9°C
Dauwpunt: -4°C
Vochtigheid: 37%
Barometer: 1020 hPa
Bewolking: Helder
Zicht: meer dan 10 km
Bewolking: Helder
EHEH 011355Z AUTO VRB04KT 9999 NCD 10/M04 Q1020 BLU VRB04KT CAVOK BECMG 31005KT
EDLV - Niederrhein, Germany
Afstand tot: ZO 154 km
Gewijzigd: 29-Mar-2020 12:50
Verouderd
Grotendeels bewolkt  
Grotendeels bewolkt  
   Wind: NNO 22.2 km/h
Wind: NNO 22.2 km/h
Temperatuur: 5°C
Voelt als: 1°C
Dauwpunt: -1°C
Vochtigheid: 66%
Barometer: 1029 hPa
Bewolking: Grotendeels bewolkt
Zicht: meer dan 10 km
Bewolking: Grotendeels bewolkt 3600 ft
EDLV 291050Z 03012KT 360V070 9999 BKN036 05/M01 Q1029
 

Script ontwikkeld door  Saratoga-weather.org Aangepast voor de template door  Weerstation Leuven

U vindt ons ook hier:

Vereniging voor Weerkunde en Klimatologie

Het Weer Aktueel

WOW Nederland KNMI

UK Metoffice

European Weather Network

WeatherCloud

Weather Underground

Benelux Weer Netwerk

AWEKAS

WeatherlinkIP

Citizen Weather Observer Program (CWOP)

HAMweather, WeatherForYou, PWS Weather

        

Apparatuur in gebruik:

Weerstation
Davis - Vantage Veu

Weerprogramma
Meteobridge

Weercomputer
Carambola2 - MeteroBridge Pro (black)

Webleverancier
1Eurohosting

Hardwareleverancier 1
Uurwerk- & Meteospecialist Vlasma

Hardwareleverancier 2
Weerhuisje

Davis - Vantage Veu

Meteobridge

Carambola2 - MeteroBridge Pro (black)

1Eurohosting

Uurwerk- & Meteospecialist Vlasma

Weerhuisje


Alles over het weer rondom het weerstation van Meteo Oudkarspel, vind je hier. Dus alles onder 1 dak.

Everything about the weather around the Meteo Oudkarspel weather station can be found here. So everything under one roof..

Dus kom regelmatig terug, So come back regularly.


# #---------------------- version history # 3.20 2015-10-12 release 2.8b version